This is the latest recevied weather packets stored in our database for station/object EA3KZ-1. If no packets are shown the sender has not sent any weather packets the latest 10 day(s).
| Time | Temp. | Humidity | Pressure | Rain* | Wind** | Luminosity | Snow |
|---|---|---|---|---|---|---|---|
| 1777999838 | 11.11° C | 91% | 1006.1 hPa | 7.62 mm | - | - | - |
| 1777999236 | 10.56° C | 89% | 1006.1 hPa | 7.87 mm | - | - | - |
| 1777998633 | 10° C | 89% | 1006 hPa | 7.87 mm | - | - | - |
| 1777998031 | 9.44° C | 87% | 1006.1 hPa | 7.62 mm | - | - | - |
| 1777997428 | 10° C | 88% | 1006.1 hPa | 7.11 mm | - | - | - |
| 1777996825 | 8.89° C | 89% | 1006.5 hPa | 6.86 mm | - | - | - |
| 1777996222 | 16.11° C | 69% | 1006.1 hPa | 0.51 mm | - | - | - |
| 1777995620 | 17.22° C | 65% | 1005.2 hPa | 0 mm | - | - | - |
| 1777995017 | 17.22° C | 64% | 1005 hPa | 0 mm | - | - | - |
| 1777994415 | 17.78° C | 66% | 1005.2 hPa | 0 mm | - | - | - |
| 1777993872 | 17.78° C | 66% | 1005.1 hPa | 0 mm | - | - | - |
| 1777993270 | 18.33° C | 66% | 1005 hPa | 0 mm | - | - | - |
| 1777992667 | 18.33° C | 66% | 1005 hPa | 0 mm | - | - | - |
| 1777992065 | 19.44° C | 63% | 1005.1 hPa | 0 mm | - | - | - |
| 1777991462 | 20° C | 61% | 1005.1 hPa | 0 mm | - | - | - |
| 1777990860 | 20.56° C | 57% | 1005.2 hPa | 0 mm | - | - | - |
| 1777989654 | 20° C | 58% | 1005.5 hPa | 0 mm | - | - | - |
| 1777989052 | 19.44° C | 59% | 1005.7 hPa | 0 mm | - | - | - |
| 1777988449 | 18.89° C | 60% | 1005.8 hPa | 0 mm | - | - | - |
| 1777987846 | 20° C | 57% | 1005.7 hPa | 0 mm | - | - | - |
| 1777987244 | 20.56° C | 54% | 1005.7 hPa | 0 mm | - | - | - |
| 1777986641 | 20° C | 55% | 1006 hPa | 0 mm | - | - | - |
| 1777986039 | 20.56° C | 55% | 1006 hPa | 0 mm | - | - | - |
| 1777985436 | 19.44° C | 60% | 1006.1 hPa | 0 mm | - | - | - |
| 1777984833 | 19.44° C | 62% | 1006 hPa | 0 mm | - | - | - |
* Rain latest hour (hover to see other rain measurements)
** Current wind speed in m/s (hover to see current wind gust speed)